Weather at Capitan FAP Carlos Martinez De Pinillos International Airport

Public forecast

Using degrees Celsius for public forecast. Weather courtesy of forecast.io.

Current aviation weather report (METAR) for Capitan FAP Carlos Martinez De Pinillos International Airport

Report is more than 6 hours old.

Retrieved 2020/11/23 20:00 UTC (13 hours ago):

SPRU 232000Z 16013KT CAVOK 19/15 Q1011 RMK PP000

Aviation forecast (TAF) for Capitan FAP Carlos Martinez De Pinillos International Airport

Forecast is more than 12 hours old.

Retrieved 2020/11/23 18:00 UTC (15 hours ago):

TAF SPRU 231700Z 2318/2418 16013KT 8000 NSC TX20/2319Z TN16/2411Z BECMG 2404/2407 18007KT